sensor_id;sensor_type;location;lat;lon;timestamp;temperature;humidity
21950;DHT22;11139;51.284;7.226;2023-07-22T00:00:24;18.20;99.30
21950;DHT22;11139;51.284;7.226;2023-07-22T00:02:51;18.10;99.30
21950;DHT22;11139;51.284;7.226;2023-07-22T00:05:16;18.10;99.20
21950;DHT22;11139;51.284;7.226;2023-07-22T00:07:47;18.10;99.20
21950;DHT22;11139;51.284;7.226;2023-07-22T00:10:12;18.10;99.10
21950;DHT22;11139;51.284;7.226;2023-07-22T00:12:38;18.10;99.00
21950;DHT22;11139;51.284;7.226;2023-07-22T00:15:03;18.10;99.10
21950;DHT22;11139;51.284;7.226;2023-07-22T00:17:29;18.10;99.10
21950;DHT22;11139;51.284;7.226;2023-07-22T00:19:55;18.10;99.10
21950;DHT22;11139;51.284;7.226;2023-07-22T00:22:20;18.10;99.10
21950;DHT22;11139;51.284;7.226;2023-07-22T00:24:47;18.10;99.00
21950;DHT22;11139;51.284;7.226;2023-07-22T00:27:12;18.10;99.00
21950;DHT22;11139;51.284;7.226;2023-07-22T00:29:38;18.10;99.00
21950;DHT22;11139;51.284;7.226;2023-07-22T00:32:04;18.00;98.90
21950;DHT22;11139;51.284;7.226;2023-07-22T00:34:32;18.00;99.00
21950;DHT22;11139;51.284;7.226;2023-07-22T00:36:57;18.00;99.00
21950;DHT22;11139;51.284;7.226;2023-07-22T00:39:24;18.00;98.90
21950;DHT22;11139;51.284;7.226;2023-07-22T00:41:49;18.00;99.00
21950;DHT22;11139;51.284;7.226;2023-07-22T00:44:15;18.00;98.90
21950;DHT22;11139;51.284;7.226;2023-07-22T00:46:40;18.00;98.90
21950;DHT22;11139;51.284;7.226;2023-07-22T00:49:07;18.00;98.90
21950;DHT22;11139;51.284;7.226;2023-07-22T00:51:32;18.00;98.90
21950;DHT22;11139;51.284;7.226;2023-07-22T00:53:58;18.00;98.90
21950;DHT22;11139;51.284;7.226;2023-07-22T00:56:24;18.00;98.90
21950;DHT22;11139;51.284;7.226;2023-07-22T00:58:50;17.90;98.80
21950;DHT22;11139;51.284;7.226;2023-07-22T01:01:15;17.90;98.80
21950;DHT22;11139;51.284;7.226;2023-07-22T01:03:42;17.90;98.80
21950;DHT22;11139;51.284;7.226;2023-07-22T01:06:07;17.90;98.80
21950;DHT22;11139;51.284;7.226;2023-07-22T01:08:34;17.90;98.80
21950;DHT22;11139;51.284;7.226;2023-07-22T01:11:00;17.90;98.80
21950;DHT22;11139;51.284;7.226;2023-07-22T01:13:25;17.90;98.80
21950;DHT22;11139;51.284;7.226;2023-07-22T01:15:51;17.90;98.80
21950;DHT22;11139;51.284;7.226;2023-07-22T01:18:16;17.80;98.90
21950;DHT22;11139;51.284;7.226;2023-07-22T01:20:42;17.90;98.90
21950;DHT22;11139;51.284;7.226;2023-07-22T01:23:08;17.90;98.90
21950;DHT22;11139;51.284;7.226;2023-07-22T01:25:34;17.90;99.00
21950;DHT22;11139;51.284;7.226;2023-07-22T01:28:00;17.90;99.20
21950;DHT22;11139;51.284;7.226;2023-07-22T01:30:25;17.90;99.00
21950;DHT22;11139;51.284;7.226;2023-07-22T01:32:52;17.90;99.00
21950;DHT22;11139;51.284;7.226;2023-07-22T01:35:18;17.90;99.00
21950;DHT22;11139;51.284;7.226;2023-07-22T01:37:44;17.90;99.00
21950;DHT22;11139;51.284;7.226;2023-07-22T01:40:10;17.90;99.00
21950;DHT22;11139;51.284;7.226;2023-07-22T01:42:39;17.90;99.10
21950;DHT22;11139;51.284;7.226;2023-07-22T01:45:05;17.90;99.10
21950;DHT22;11139;51.284;7.226;2023-07-22T01:47:36;17.90;99.10
21950;DHT22;11139;51.284;7.226;2023-07-22T01:50:05;17.90;99.10
21950;DHT22;11139;51.284;7.226;2023-07-22T01:52:33;17.80;99.00
21950;DHT22;11139;51.284;7.226;2023-07-22T01:54:59;17.80;99.10
21950;DHT22;11139;51.284;7.226;2023-07-22T01:57:24;17.80;99.10
21950;DHT22;11139;51.284;7.226;2023-07-22T01:59:50;17.80;99.10
21950;DHT22;11139;51.284;7.226;2023-07-22T02:02:15;17.80;99.00
21950;DHT22;11139;51.284;7.226;2023-07-22T02:04:41;17.90;99.00
21950;DHT22;11139;51.284;7.226;2023-07-22T02:07:06;17.80;99.00
21950;DHT22;11139;51.284;7.226;2023-07-22T02:09:32;17.80;99.00
21950;DHT22;11139;51.284;7.226;2023-07-22T02:11:58;17.80;99.10
21950;DHT22;11139;51.284;7.226;2023-07-22T02:14:24;17.80;99.10
21950;DHT22;11139;51.284;7.226;2023-07-22T02:16:49;17.80;99.10
21950;DHT22;11139;51.284;7.226;2023-07-22T02:19:14;17.80;99.10
21950;DHT22;11139;51.284;7.226;2023-07-22T02:21:41;17.80;99.10
21950;DHT22;11139;51.284;7.226;2023-07-22T02:24:07;17.80;99.00
21950;DHT22;11139;51.284;7.226;2023-07-22T02:26:32;17.80;99.00
21950;DHT22;11139;51.284;7.226;2023-07-22T02:28:58;17.70;99.00
21950;DHT22;11139;51.284;7.226;2023-07-22T02:31:24;17.80;99.10
21950;DHT22;11139;51.284;7.226;2023-07-22T02:33:50;17.80;99.10
21950;DHT22;11139;51.284;7.226;2023-07-22T02:36:16;17.80;99.10
21950;DHT22;11139;51.284;7.226;2023-07-22T02:38:41;17.70;99.10
21950;DHT22;11139;51.284;7.226;2023-07-22T02:41:07;17.70;99.10
21950;DHT22;11139;51.284;7.226;2023-07-22T02:43:36;17.70;99.10
21950;DHT22;11139;51.284;7.226;2023-07-22T02:46:02;17.70;99.10
21950;DHT22;11139;51.284;7.226;2023-07-22T02:48:28;17.70;99.10
21950;DHT22;11139;51.284;7.226;2023-07-22T02:50:54;17.80;99.10
21950;DHT22;11139;51.284;7.226;2023-07-22T02:53:19;17.70;99.10
21950;DHT22;11139;51.284;7.226;2023-07-22T02:55:45;17.70;99.10
21950;DHT22;11139;51.284;7.226;2023-07-22T02:58:11;17.70;99.10
21950;DHT22;11139;51.284;7.226;2023-07-22T03:00:37;17.70;99.10
21950;DHT22;11139;51.284;7.226;2023-07-22T03:03:03;17.70;99.20
21950;DHT22;11139;51.284;7.226;2023-07-22T03:05:30;17.70;99.10
21950;DHT22;11139;51.284;7.226;2023-07-22T03:07:56;17.70;99.10
21950;DHT22;11139;51.284;7.226;2023-07-22T03:10:22;17.70;99.10
21950;DHT22;11139;51.284;7.226;2023-07-22T03:12:48;17.70;99.20
21950;DHT22;11139;51.284;7.226;2023-07-22T03:15:14;17.70;99.10
21950;DHT22;11139;51.284;7.226;2023-07-22T03:17:39;17.70;99.10
21950;DHT22;11139;51.284;7.226;2023-07-22T03:20:07;17.70;99.10
21950;DHT22;11139;51.284;7.226;2023-07-22T03:22:39;17.70;99.20
21950;DHT22;11139;51.284;7.226;2023-07-22T03:25:05;17.60;99.20
21950;DHT22;11139;51.284;7.226;2023-07-22T03:27:33;17.70;99.10
21950;DHT22;11139;51.284;7.226;2023-07-22T03:29:59;17.70;99.10
21950;DHT22;11139;51.284;7.226;2023-07-22T03:32:24;17.70;99.20
21950;DHT22;11139;51.284;7.226;2023-07-22T03:34:50;17.60;99.10
21950;DHT22;11139;51.284;7.226;2023-07-22T03:37:15;17.70;99.10
21950;DHT22;11139;51.284;7.226;2023-07-22T03:39:41;17.60;99.10
21950;DHT22;11139;51.284;7.226;2023-07-22T03:42:06;17.60;99.10
21950;DHT22;11139;51.284;7.226;2023-07-22T03:44:32;17.60;99.20
21950;DHT22;11139;51.284;7.226;2023-07-22T03:46:57;17.60;99.20
21950;DHT22;11139;51.284;7.226;2023-07-22T03:49:22;17.60;99.20
21950;DHT22;11139;51.284;7.226;2023-07-22T03:51:48;17.60;99.20
21950;DHT22;11139;51.284;7.226;2023-07-22T03:54:14;17.60;99.20
21950;DHT22;11139;51.284;7.226;2023-07-22T03:56:39;17.60;99.20
21950;DHT22;11139;51.284;7.226;2023-07-22T03:59:05;17.60;99.20
21950;DHT22;11139;51.284;7.226;2023-07-22T04:01:31;17.60;99.10
21950;DHT22;11139;51.284;7.226;2023-07-22T04:03:56;17.60;99.20
21950;DHT22;11139;51.284;7.226;2023-07-22T04:06:22;17.60;99.20
21950;DHT22;11139;51.284;7.226;2023-07-22T04:08:47;17.60;99.10
21950;DHT22;11139;51.284;7.226;2023-07-22T04:11:13;17.60;99.20
21950;DHT22;11139;51.284;7.226;2023-07-22T04:13:39;17.60;99.10
21950;DHT22;11139;51.284;7.226;2023-07-22T04:16:04;17.60;99.10
21950;DHT22;11139;51.284;7.226;2023-07-22T04:18:30;17.60;99.20
21950;DHT22;11139;51.284;7.226;2023-07-22T04:21:00;17.60;99.20
21950;DHT22;11139;51.284;7.226;2023-07-22T04:23:25;17.60;99.10
21950;DHT22;11139;51.284;7.226;2023-07-22T04:25:51;17.60;99.20
21950;DHT22;11139;51.284;7.226;2023-07-22T04:28:16;17.50;99.10
21950;DHT22;11139;51.284;7.226;2023-07-22T04:30:42;17.50;99.20
21950;DHT22;11139;51.284;7.226;2023-07-22T04:33:07;17.50;99.30
21950;DHT22;11139;51.284;7.226;2023-07-22T04:35:37;17.50;99.20
21950;DHT22;11139;51.284;7.226;2023-07-22T04:38:02;17.50;99.10
21950;DHT22;11139;51.284;7.226;2023-07-22T04:40:28;17.60;99.20
21950;DHT22;11139;51.284;7.226;2023-07-22T04:42:58;17.50;99.20
21950;DHT22;11139;51.284;7.226;2023-07-22T04:45:23;17.50;99.20
21950;DHT22;11139;51.284;7.226;2023-07-22T04:47:49;17.50;99.20
21950;DHT22;11139;51.284;7.226;2023-07-22T04:50:16;17.50;99.20
21950;DHT22;11139;51.284;7.226;2023-07-22T04:52:46;17.50;99.20
21950;DHT22;11139;51.284;7.226;2023-07-22T04:55:11;17.50;99.20
21950;DHT22;11139;51.284;7.226;2023-07-22T04:57:40;17.50;99.20
21950;DHT22;11139;51.284;7.226;2023-07-22T05:00:13;17.50;99.10
21950;DHT22;11139;51.284;7.226;2023-07-22T05:02:40;17.50;99.20
21950;DHT22;11139;51.284;7.226;2023-07-22T05:05:06;17.50;99.10
21950;DHT22;11139;51.284;7.226;2023-07-22T05:07:32;17.50;99.10
21950;DHT22;11139;51.284;7.226;2023-07-22T05:09:57;17.50;99.30
21950;DHT22;11139;51.284;7.226;2023-07-22T05:12:23;17.50;99.20
21950;DHT22;11139;51.284;7.226;2023-07-22T05:14:48;17.50;99.20
21950;DHT22;11139;51.284;7.226;2023-07-22T05:17:14;17.50;99.50
21950;DHT22;11139;51.284;7.226;2023-07-22T05:19:40;17.50;99.20
21950;DHT22;11139;51.284;7.226;2023-07-22T05:22:05;17.50;99.20
21950;DHT22;11139;51.284;7.226;2023-07-22T05:24:31;17.50;99.10
21950;DHT22;11139;51.284;7.226;2023-07-22T05:26:56;17.50;99.10
21950;DHT22;11139;51.284;7.226;2023-07-22T05:29:22;17.40;99.10
21950;DHT22;11139;51.284;7.226;2023-07-22T05:31:47;17.50;99.20
21950;DHT22;11139;51.284;7.226;2023-07-22T05:34:13;17.50;99.20
21950;DHT22;11139;51.284;7.226;2023-07-22T05:36:39;17.50;99.20
21950;DHT22;11139;51.284;7.226;2023-07-22T05:39:04;17.50;99.20
21950;DHT22;11139;51.284;7.226;2023-07-22T05:41:31;17.50;99.30
21950;DHT22;11139;51.284;7.226;2023-07-22T05:43:57;17.40;99.20
21950;DHT22;11139;51.284;7.226;2023-07-22T05:46:23;17.40;99.20
21950;DHT22;11139;51.284;7.226;2023-07-22T05:48:48;17.50;99.30
21950;DHT22;11139;51.284;7.226;2023-07-22T05:51:14;17.40;99.20
21950;DHT22;11139;51.284;7.226;2023-07-22T05:53:40;17.40;99.30
21950;DHT22;11139;51.284;7.226;2023-07-22T05:56:05;17.40;99.20
21950;DHT22;11139;51.284;7.226;2023-07-22T05:58:31;17.40;99.20
21950;DHT22;11139;51.284;7.226;2023-07-22T06:00:56;17.40;99.20
21950;DHT22;11139;51.284;7.226;2023-07-22T06:03:22;17.40;99.20
21950;DHT22;11139;51.284;7.226;2023-07-22T06:05:47;17.40;99.20
21950;DHT22;11139;51.284;7.226;2023-07-22T06:08:13;17.40;99.20
21950;DHT22;11139;51.284;7.226;2023-07-22T06:10:39;17.50;99.20
21950;DHT22;11139;51.284;7.226;2023-07-22T06:13:05;17.40;99.10
21950;DHT22;11139;51.284;7.226;2023-07-22T06:15:31;17.40;99.10
21950;DHT22;11139;51.284;7.226;2023-07-22T06:17:56;17.40;99.10
21950;DHT22;11139;51.284;7.226;2023-07-22T06:20:22;17.40;99.00
21950;DHT22;11139;51.284;7.226;2023-07-22T06:22:48;17.40;99.00
21950;DHT22;11139;51.284;7.226;2023-07-22T06:25:13;17.40;99.00
21950;DHT22;11139;51.284;7.226;2023-07-22T06:27:39;17.40;99.00
21950;DHT22;11139;51.284;7.226;2023-07-22T06:30:04;17.40;99.00
21950;DHT22;11139;51.284;7.226;2023-07-22T06:32:30;17.40;98.90
21950;DHT22;11139;51.284;7.226;2023-07-22T06:34:56;17.40;98.70
21950;DHT22;11139;51.284;7.226;2023-07-22T06:37:22;17.40;98.50
21950;DHT22;11139;51.284;7.226;2023-07-22T06:39:48;17.40;98.60
21950;DHT22;11139;51.284;7.226;2023-07-22T06:42:13;17.40;98.30
21950;DHT22;11139;51.284;7.226;2023-07-22T06:44:39;17.40;98.20
21950;DHT22;11139;51.284;7.226;2023-07-22T06:47:04;17.40;98.10
21950;DHT22;11139;51.284;7.226;2023-07-22T06:49:30;17.40;98.00
21950;DHT22;11139;51.284;7.226;2023-07-22T06:51:55;17.40;97.90
21950;DHT22;11139;51.284;7.226;2023-07-22T06:54:21;17.40;98.00
21950;DHT22;11139;51.284;7.226;2023-07-22T06:56:47;17.40;98.00
21950;DHT22;11139;51.284;7.226;2023-07-22T06:59:12;17.40;97.80
21950;DHT22;11139;51.284;7.226;2023-07-22T07:01:38;17.40;97.70
21950;DHT22;11139;51.284;7.226;2023-07-22T07:04:03;17.40;97.60
21950;DHT22;11139;51.284;7.226;2023-07-22T07:06:29;17.40;97.70
21950;DHT22;11139;51.284;7.226;2023-07-22T07:09:01;17.40;97.70
21950;DHT22;11139;51.284;7.226;2023-07-22T07:11:27;17.40;97.60
21950;DHT22;11139;51.284;7.226;2023-07-22T07:13:53;17.40;97.70
21950;DHT22;11139;51.284;7.226;2023-07-22T07:16:26;17.40;97.60
21950;DHT22;11139;51.284;7.226;2023-07-22T07:18:52;17.40;97.50
21950;DHT22;11139;51.284;7.226;2023-07-22T07:21:18;17.40;97.60
21950;DHT22;11139;51.284;7.226;2023-07-22T07:23:44;17.40;97.60
21950;DHT22;11139;51.284;7.226;2023-07-22T07:26:09;17.40;97.60
21950;DHT22;11139;51.284;7.226;2023-07-22T07:28:38;17.40;97.50
21950;DHT22;11139;51.284;7.226;2023-07-22T07:31:03;17.40;97.70
21950;DHT22;11139;51.284;7.226;2023-07-22T07:33:29;17.40;97.70
21950;DHT22;11139;51.284;7.226;2023-07-22T07:35:54;17.40;96.70
21950;DHT22;11139;51.284;7.226;2023-07-22T07:38:20;17.30;96.80
21950;DHT22;11139;51.284;7.226;2023-07-22T07:40:45;17.40;96.90
21950;DHT22;11139;51.284;7.226;2023-07-22T07:43:11;17.40;97.00
21950;DHT22;11139;51.284;7.226;2023-07-22T07:45:38;17.40;97.20
21950;DHT22;11139;51.284;7.226;2023-07-22T07:48:04;17.40;97.30
21950;DHT22;11139;51.284;7.226;2023-07-22T07:50:29;17.40;97.30
21950;DHT22;11139;51.284;7.226;2023-07-22T07:52:55;17.40;97.40
21950;DHT22;11139;51.284;7.226;2023-07-22T07:55:20;17.40;97.40
21950;DHT22;11139;51.284;7.226;2023-07-22T07:57:46;17.40;97.40
21950;DHT22;11139;51.284;7.226;2023-07-22T08:00:11;17.40;97.30
21950;DHT22;11139;51.284;7.226;2023-07-22T08:02:37;17.40;97.30
21950;DHT22;11139;51.284;7.226;2023-07-22T08:05:03;17.40;97.20
21950;DHT22;11139;51.284;7.226;2023-07-22T08:07:28;17.40;97.20
21950;DHT22;11139;51.284;7.226;2023-07-22T08:09:54;17.40;97.20
21950;DHT22;11139;51.284;7.226;2023-07-22T08:12:19;17.40;97.20
21950;DHT22;11139;51.284;7.226;2023-07-22T08:14:45;17.40;97.30
21950;DHT22;11139;51.284;7.226;2023-07-22T08:17:10;17.40;97.30
21950;DHT22;11139;51.284;7.226;2023-07-22T08:19:36;17.40;97.20
21950;DHT22;11139;51.284;7.226;2023-07-22T08:22:02;17.50;97.30
21950;DHT22;11139;51.284;7.226;2023-07-22T08:24:27;17.40;97.30
21950;DHT22;11139;51.284;7.226;2023-07-22T08:26:53;17.40;97.30
21950;DHT22;11139;51.284;7.226;2023-07-22T08:29:18;17.50;97.50
21950;DHT22;11139;51.284;7.226;2023-07-22T08:31:44;17.50;97.40
21950;DHT22;11139;51.284;7.226;2023-07-22T08:34:09;17.50;97.40
21950;DHT22;11139;51.284;7.226;2023-07-22T08:36:35;17.50;97.30
21950;DHT22;11139;51.284;7.226;2023-07-22T08:39:01;17.50;97.40
21950;DHT22;11139;51.284;7.226;2023-07-22T08:41:26;17.50;97.60
21950;DHT22;11139;51.284;7.226;2023-07-22T08:43:53;17.50;97.00
21950;DHT22;11139;51.284;7.226;2023-07-22T08:46:19;17.50;97.10
21950;DHT22;11139;51.284;7.226;2023-07-22T08:48:49;17.50;96.90
21950;DHT22;11139;51.284;7.226;2023-07-22T08:51:18;17.50;96.90
21950;DHT22;11139;51.284;7.226;2023-07-22T08:53:44;17.50;96.70
21950;DHT22;11139;51.284;7.226;2023-07-22T08:56:10;17.50;96.80
21950;DHT22;11139;51.284;7.226;2023-07-22T08:58:36;17.50;96.50
21950;DHT22;11139;51.284;7.226;2023-07-22T09:01:01;17.50;96.50
21950;DHT22;11139;51.284;7.226;2023-07-22T09:03:27;17.50;96.40
21950;DHT22;11139;51.284;7.226;2023-07-22T09:05:52;17.50;96.40
21950;DHT22;11139;51.284;7.226;2023-07-22T09:08:18;17.50;96.40
21950;DHT22;11139;51.284;7.226;2023-07-22T09:10:44;17.50;96.40
21950;DHT22;11139;51.284;7.226;2023-07-22T09:13:10;17.60;96.40
21950;DHT22;11139;51.284;7.226;2023-07-22T09:15:36;17.60;96.30
21950;DHT22;11139;51.284;7.226;2023-07-22T09:18:03;17.60;96.20
21950;DHT22;11139;51.284;7.226;2023-07-22T09:20:30;17.60;96.30
21950;DHT22;11139;51.284;7.226;2023-07-22T09:22:56;17.60;96.30
21950;DHT22;11139;51.284;7.226;2023-07-22T09:25:22;17.60;96.30
21950;DHT22;11139;51.284;7.226;2023-07-22T09:27:48;17.60;96.30
21950;DHT22;11139;51.284;7.226;2023-07-22T09:30:34;17.60;96.30
21950;DHT22;11139;51.284;7.226;2023-07-22T09:33:01;17.60;96.30
21950;DHT22;11139;51.284;7.226;2023-07-22T09:35:27;17.60;96.00
21950;DHT22;11139;51.284;7.226;2023-07-22T09:37:54;17.60;95.90
21950;DHT22;11139;51.284;7.226;2023-07-22T09:40:23;17.60;95.70
21950;DHT22;11139;51.284;7.226;2023-07-22T09:42:50;17.70;95.70
21950;DHT22;11139;51.284;7.226;2023-07-22T09:45:16;17.60;95.60
21950;DHT22;11139;51.284;7.226;2023-07-22T09:47:46;17.70;95.70
21950;DHT22;11139;51.284;7.226;2023-07-22T09:50:13;17.60;95.70
21950;DHT22;11139;51.284;7.226;2023-07-22T09:52:43;17.70;95.80
21950;DHT22;11139;51.284;7.226;2023-07-22T09:55:09;17.70;95.90
21950;DHT22;11139;51.284;7.226;2023-07-22T09:57:35;17.70;95.80
21950;DHT22;11139;51.284;7.226;2023-07-22T10:00:01;17.70;95.70
21950;DHT22;11139;51.284;7.226;2023-07-22T10:02:26;17.70;95.70
21950;DHT22;11139;51.284;7.226;2023-07-22T10:04:52;17.70;95.40
21950;DHT22;11139;51.284;7.226;2023-07-22T10:07:18;17.70;95.40
21950;DHT22;11139;51.284;7.226;2023-07-22T10:09:44;17.70;95.30
21950;DHT22;11139;51.284;7.226;2023-07-22T10:12:11;17.70;95.10
21950;DHT22;11139;51.284;7.226;2023-07-22T10:14:40;17.70;94.90
21950;DHT22;11139;51.284;7.226;2023-07-22T10:17:06;17.70;94.90
21950;DHT22;11139;51.284;7.226;2023-07-22T10:19:34;17.70;94.80
21950;DHT22;11139;51.284;7.226;2023-07-22T10:22:00;17.70;94.80
21950;DHT22;11139;51.284;7.226;2023-07-22T10:24:25;17.70;94.80
21950;DHT22;11139;51.284;7.226;2023-07-22T10:26:51;17.70;94.80
21950;DHT22;11139;51.284;7.226;2023-07-22T10:29:17;17.70;94.80
21950;DHT22;11139;51.284;7.226;2023-07-22T10:31:44;17.70;94.80
21950;DHT22;11139;51.284;7.226;2023-07-22T10:34:09;17.70;94.70
21950;DHT22;11139;51.284;7.226;2023-07-22T10:36:35;17.70;94.70
21950;DHT22;11139;51.284;7.226;2023-07-22T10:39:00;17.70;94.70
21950;DHT22;11139;51.284;7.226;2023-07-22T10:41:26;17.80;94.80
21950;DHT22;11139;51.284;7.226;2023-07-22T10:43:55;17.80;94.90
21950;DHT22;11139;51.284;7.226;2023-07-22T10:47:22;17.80;94.90
21950;DHT22;11139;51.284;7.226;2023-07-22T10:49:17;17.80;94.80
21950;DHT22;11139;51.284;7.226;2023-07-22T10:51:49;17.80;94.70
21950;DHT22;11139;51.284;7.226;2023-07-22T10:54:15;17.90;94.50
21950;DHT22;11139;51.284;7.226;2023-07-22T10:56:56;17.90;94.50
21950;DHT22;11139;51.284;7.226;2023-07-22T10:59:26;17.90;94.50
21950;DHT22;11139;51.284;7.226;2023-07-22T11:01:51;17.90;94.40
21950;DHT22;11139;51.284;7.226;2023-07-22T11:04:25;17.90;94.40
21950;DHT22;11139;51.284;7.226;2023-07-22T11:06:58;18.00;94.30
21950;DHT22;11139;51.284;7.226;2023-07-22T11:11:53;18.00;94.20
21950;DHT22;11139;51.284;7.226;2023-07-22T11:14:23;18.00;94.10
21950;DHT22;11139;51.284;7.226;2023-07-22T11:16:48;18.00;93.80
21950;DHT22;11139;51.284;7.226;2023-07-22T11:19:14;18.10;93.70
21950;DHT22;11139;51.284;7.226;2023-07-22T11:21:41;18.10;93.40
21950;DHT22;11139;51.284;7.226;2023-07-22T11:24:09;18.10;93.40
21950;DHT22;11139;51.284;7.226;2023-07-22T11:26:34;18.10;93.40
21950;DHT22;11139;51.284;7.226;2023-07-22T11:29:00;18.10;93.40
21950;DHT22;11139;51.284;7.226;2023-07-22T11:31:33;18.10;93.40
21950;DHT22;11139;51.284;7.226;2023-07-22T11:34:02;18.20;93.30
21950;DHT22;11139;51.284;7.226;2023-07-22T11:36:27;18.20;93.20
21950;DHT22;11139;51.284;7.226;2023-07-22T11:39:09;18.20;93.10
21950;DHT22;11139;51.284;7.226;2023-07-22T11:41:34;18.20;92.90
21950;DHT22;11139;51.284;7.226;2023-07-22T11:44:03;18.30;92.80
21950;DHT22;11139;51.284;7.226;2023-07-22T11:46:56;18.30;92.80
21950;DHT22;11139;51.284;7.226;2023-07-22T11:49:31;18.30;92.80
21950;DHT22;11139;51.284;7.226;2023-07-22T11:52:01;18.20;92.80
21950;DHT22;11139;51.284;7.226;2023-07-22T11:54:27;18.30;92.60
21950;DHT22;11139;51.284;7.226;2023-07-22T11:56:54;18.30;92.60
21950;DHT22;11139;51.284;7.226;2023-07-22T11:59:40;18.30;92.60
21950;DHT22;11139;51.284;7.226;2023-07-22T12:02:12;18.30;92.70
21950;DHT22;11139;51.284;7.226;2023-07-22T12:04:37;18.80;92.10
21950;DHT22;11139;51.284;7.226;2023-07-22T12:07:03;19.20;91.60
21950;DHT22;11139;51.284;7.226;2023-07-22T12:09:32;19.40;91.30
21950;DHT22;11139;51.284;7.226;2023-07-22T12:11:58;19.50;91.00
21950;DHT22;11139;51.284;7.226;2023-07-22T12:14:24;19.60;90.70
21950;DHT22;11139;51.284;7.226;2023-07-22T12:16:52;19.60;91.00
21950;DHT22;11139;51.284;7.226;2023-07-22T12:19:20;19.70;91.10
21950;DHT22;11139;51.284;7.226;2023-07-22T12:21:45;19.80;91.60
21950;DHT22;11139;51.284;7.226;2023-07-22T12:24:13;19.80;91.80
21950;DHT22;11139;51.284;7.226;2023-07-22T12:26:38;19.80;91.90
21950;DHT22;11139;51.284;7.226;2023-07-22T12:29:04;19.80;92.20
21950;DHT22;11139;51.284;7.226;2023-07-22T12:31:29;19.90;92.20
21950;DHT22;11139;51.284;7.226;2023-07-22T12:33:55;19.90;91.90
21950;DHT22;11139;51.284;7.226;2023-07-22T12:36:20;19.90;91.80
21950;DHT22;11139;51.284;7.226;2023-07-22T12:38:46;19.80;91.60
21950;DHT22;11139;51.284;7.226;2023-07-22T12:41:11;19.90;91.30
21950;DHT22;11139;51.284;7.226;2023-07-22T12:43:37;19.90;91.20
21950;DHT22;11139;51.284;7.226;2023-07-22T12:46:02;19.90;91.00
21950;DHT22;11139;51.284;7.226;2023-07-22T12:48:28;19.90;90.80
21950;DHT22;11139;51.284;7.226;2023-07-22T12:50:53;19.90;90.80
21950;DHT22;11139;51.284;7.226;2023-07-22T12:53:19;19.90;90.50
21950;DHT22;11139;51.284;7.226;2023-07-22T12:55:45;19.90;90.00
21950;DHT22;11139;51.284;7.226;2023-07-22T12:58:11;19.80;89.80
21950;DHT22;11139;51.284;7.226;2023-07-22T13:00:36;19.90;89.50
21950;DHT22;11139;51.284;7.226;2023-07-22T13:03:01;20.00;89.70
21950;DHT22;11139;51.284;7.226;2023-07-22T13:05:27;20.10;88.90
21950;DHT22;11139;51.284;7.226;2023-07-22T13:07:52;20.00;89.10
21950;DHT22;11139;51.284;7.226;2023-07-22T13:10:18;19.90;89.10
21950;DHT22;11139;51.284;7.226;2023-07-22T13:12:45;19.90;89.20
21950;DHT22;11139;51.284;7.226;2023-07-22T13:15:11;19.90;89.20
21950;DHT22;11139;51.284;7.226;2023-07-22T13:17:36;19.90;88.90
21950;DHT22;11139;51.284;7.226;2023-07-22T13:20:02;19.90;88.40
21950;DHT22;11139;51.284;7.226;2023-07-22T13:22:32;19.90;88.00
21950;DHT22;11139;51.284;7.226;2023-07-22T13:24:58;19.90;87.20
21950;DHT22;11139;51.284;7.226;2023-07-22T13:27:23;19.90;86.20
21950;DHT22;11139;51.284;7.226;2023-07-22T13:29:48;19.90;84.80
21950;DHT22;11139;51.284;7.226;2023-07-22T13:32:14;20.00;84.70
21950;DHT22;11139;51.284;7.226;2023-07-22T13:34:39;19.90;84.70
21950;DHT22;11139;51.284;7.226;2023-07-22T13:37:05;19.90;85.20
21950;DHT22;11139;51.284;7.226;2023-07-22T13:39:37;19.90;85.30
21950;DHT22;11139;51.284;7.226;2023-07-22T13:42:02;19.90;84.70
21950;DHT22;11139;51.284;7.226;2023-07-22T13:44:28;20.00;83.90
21950;DHT22;11139;51.284;7.226;2023-07-22T13:46:53;20.00;84.00
21950;DHT22;11139;51.284;7.226;2023-07-22T13:49:19;20.10;83.90
21950;DHT22;11139;51.284;7.226;2023-07-22T13:51:51;20.00;83.20
21950;DHT22;11139;51.284;7.226;2023-07-22T13:54:24;20.00;83.30
21950;DHT22;11139;51.284;7.226;2023-07-22T13:56:59;20.10;83.40
21950;DHT22;11139;51.284;7.226;2023-07-22T13:59:27;20.00;82.90
21950;DHT22;11139;51.284;7.226;2023-07-22T14:01:53;20.00;82.90
21950;DHT22;11139;51.284;7.226;2023-07-22T14:04:18;20.10;83.20
21950;DHT22;11139;51.284;7.226;2023-07-22T14:06:44;20.00;83.70
21950;DHT22;11139;51.284;7.226;2023-07-22T14:09:09;20.00;84.20
21950;DHT22;11139;51.284;7.226;2023-07-22T14:11:35;20.00;84.50
21950;DHT22;11139;51.284;7.226;2023-07-22T14:14:00;20.00;84.10
21950;DHT22;11139;51.284;7.226;2023-07-22T14:16:26;20.10;83.80
21950;DHT22;11139;51.284;7.226;2023-07-22T14:18:51;20.10;83.10
21950;DHT22;11139;51.284;7.226;2023-07-22T14:21:18;20.10;82.90
21950;DHT22;11139;51.284;7.226;2023-07-22T14:23:43;20.10;83.10
21950;DHT22;11139;51.284;7.226;2023-07-22T14:26:09;20.10;83.00
21950;DHT22;11139;51.284;7.226;2023-07-22T14:28:34;20.10;82.70
21950;DHT22;11139;51.284;7.226;2023-07-22T14:31:00;20.20;82.40
21950;DHT22;11139;51.284;7.226;2023-07-22T14:33:25;20.10;82.20
21950;DHT22;11139;51.284;7.226;2023-07-22T14:35:51;20.20;81.80
21950;DHT22;11139;51.284;7.226;2023-07-22T14:38:16;20.10;82.30
21950;DHT22;11139;51.284;7.226;2023-07-22T14:40:42;20.10;82.60
21950;DHT22;11139;51.284;7.226;2023-07-22T14:43:07;20.10;83.00
21950;DHT22;11139;51.284;7.226;2023-07-22T14:45:33;20.10;82.70
21950;DHT22;11139;51.284;7.226;2023-07-22T14:47:58;20.10;83.20
21950;DHT22;11139;51.284;7.226;2023-07-22T14:50:24;20.10;82.70
21950;DHT22;11139;51.284;7.226;2023-07-22T14:52:50;20.20;82.90
21950;DHT22;11139;51.284;7.226;2023-07-22T14:55:15;20.20;82.60
21950;DHT22;11139;51.284;7.226;2023-07-22T14:57:41;20.20;82.40
21950;DHT22;11139;51.284;7.226;2023-07-22T15:00:06;20.20;82.60
21950;DHT22;11139;51.284;7.226;2023-07-22T15:02:32;20.20;82.90
21950;DHT22;11139;51.284;7.226;2023-07-22T15:04:58;20.20;83.00
21950;DHT22;11139;51.284;7.226;2023-07-22T15:07:23;20.20;82.90
21950;DHT22;11139;51.284;7.226;2023-07-22T15:09:49;20.20;83.00
21950;DHT22;11139;51.284;7.226;2023-07-22T15:12:14;20.20;83.30
21950;DHT22;11139;51.284;7.226;2023-07-22T15:14:40;20.20;83.00
21950;DHT22;11139;51.284;7.226;2023-07-22T15:17:05;20.20;83.50
21950;DHT22;11139;51.284;7.226;2023-07-22T15:19:31;20.20;83.50
21950;DHT22;11139;51.284;7.226;2023-07-22T15:21:56;20.20;83.50
21950;DHT22;11139;51.284;7.226;2023-07-22T15:24:22;20.10;83.80
21950;DHT22;11139;51.284;7.226;2023-07-22T15:26:47;20.20;83.70